createdAt,value
2023-05-02T00:01:18.000Z,3.6
2023-05-02T00:04:51.000Z,4
2023-05-02T00:08:23.000Z,3.5
2023-05-02T00:11:57.000Z,3.2
2023-05-02T00:14:48.000Z,4
2023-05-02T00:18:20.000Z,3.1
2023-05-02T00:21:53.000Z,4.1
2023-05-02T00:25:26.000Z,3
2023-05-02T00:28:58.000Z,3.1
2023-05-02T00:32:31.000Z,3
2023-05-02T00:36:03.000Z,2.7
2023-05-02T00:39:36.000Z,4.3
2023-05-02T00:43:09.000Z,3.9
2023-05-02T00:46:41.000Z,4.3
2023-05-02T00:50:14.000Z,4.2
2023-05-02T00:53:06.000Z,3.7
2023-05-02T00:56:38.000Z,3.8
2023-05-02T01:00:11.000Z,4.4
2023-05-02T01:03:44.000Z,4
2023-05-02T01:07:16.000Z,4.5
2023-05-02T01:10:49.000Z,5.7
2023-05-02T01:14:22.000Z,5.4
2023-05-02T01:17:54.000Z,6.1
2023-05-02T01:21:27.000Z,6.4
2023-05-02T01:25:00.000Z,6.8
2023-05-02T01:28:32.000Z,6.3
2023-05-02T01:31:24.000Z,5.4
2023-05-02T01:34:57.000Z,7.5
2023-05-02T01:38:29.000Z,7.5
2023-05-02T01:42:02.000Z,7.7
2023-05-02T01:45:34.000Z,7.4
2023-05-02T01:49:07.000Z,6.9
2023-05-02T01:52:40.000Z,8.5
2023-05-02T01:56:12.000Z,7
2023-05-02T01:59:45.000Z,6.2
2023-05-02T02:03:17.000Z,6.8
2023-05-02T02:06:50.000Z,7.3
2023-05-02T02:09:41.000Z,7
2023-05-02T02:13:14.000Z,6.7
2023-05-02T02:16:47.000Z,7.1
2023-05-02T02:20:19.000Z,6.8
2023-05-02T02:23:52.000Z,7
2023-05-02T02:27:25.000Z,7.4
2023-05-02T02:30:57.000Z,7.9
2023-05-02T02:34:30.000Z,8
2023-05-02T02:38:03.000Z,8.2
2023-05-02T02:41:36.000Z,9.3
2023-05-02T02:45:08.000Z,7.5
2023-05-02T02:47:59.000Z,8
2023-05-02T02:51:32.000Z,8.5
2023-05-02T02:55:05.000Z,7.6
2023-05-02T02:58:37.000Z,7.4
2023-05-02T03:02:10.000Z,8.2
2023-05-02T03:05:43.000Z,8.4
2023-05-02T03:09:15.000Z,8.6
2023-05-02T03:12:48.000Z,9.5
2023-05-02T03:16:21.000Z,9.1
2023-05-02T03:19:54.000Z,10.1
2023-05-02T03:23:27.000Z,10.2
2023-05-02T03:26:18.000Z,11.6
2023-05-02T03:29:51.000Z,12.4
2023-05-02T03:33:25.000Z,11.7
2023-05-02T03:36:58.000Z,15.2
2023-05-02T03:40:30.000Z,16.7
2023-05-02T03:44:03.000Z,19.8
2023-05-02T03:47:36.000Z,17.4
2023-05-02T03:51:08.000Z,19.5
2023-05-02T03:54:41.000Z,20.7
2023-05-02T03:58:14.000Z,19.2
2023-05-02T04:01:46.000Z,18.4
2023-05-02T04:04:37.000Z,15.7
2023-05-02T04:08:10.000Z,18.8
2023-05-02T04:11:43.000Z,19.8
2023-05-02T04:15:15.000Z,16.3
2023-05-02T04:18:48.000Z,15.9
2023-05-02T04:22:21.000Z,14.7
2023-05-02T04:25:54.000Z,14.2
2023-05-02T04:29:26.000Z,16.1
2023-05-02T04:32:59.000Z,15.6
2023-05-02T04:36:31.000Z,18
2023-05-02T04:40:04.000Z,21.4
2023-05-02T04:42:55.000Z,22.2
2023-05-02T04:46:28.000Z,20.3
2023-05-02T04:50:01.000Z,21.9
2023-05-02T04:53:33.000Z,23.4
2023-05-02T04:57:06.000Z,25.4
2023-05-02T05:00:39.000Z,22.5
2023-05-02T05:04:12.000Z,27.3
2023-05-02T05:07:45.000Z,24.5
2023-05-02T05:11:17.000Z,25.3
2023-05-02T05:14:50.000Z,26.3
2023-05-02T05:18:23.000Z,27.7
2023-05-02T05:21:14.000Z,27.9
2023-05-02T05:24:47.000Z,30.3
2023-05-02T05:28:19.000Z,23.8
2023-05-02T05:31:52.000Z,29.3
2023-05-02T05:35:25.000Z,29.1
2023-05-02T05:38:58.000Z,29.7
2023-05-02T05:42:30.000Z,32.3
2023-05-02T05:46:03.000Z,30.3
2023-05-02T05:49:36.000Z,28.5
2023-05-02T05:53:09.000Z,29.8
2023-05-02T05:56:42.000Z,28
2023-05-02T05:59:33.000Z,30.4
2023-05-02T06:03:05.000Z,30.2
2023-05-02T06:06:38.000Z,29.3
2023-05-02T06:10:11.000Z,32.6
2023-05-02T06:13:44.000Z,31.2
2023-05-02T06:17:16.000Z,31.4
2023-05-02T06:20:49.000Z,30.9
2023-05-02T06:24:22.000Z,34
2023-05-02T06:27:54.000Z,35.1
2023-05-02T06:31:27.000Z,35.1
2023-05-02T06:35:00.000Z,32
2023-05-02T06:37:51.000Z,30.5
2023-05-02T06:41:23.000Z,31.4
2023-05-02T06:44:56.000Z,29.6
2023-05-02T06:48:29.000Z,36.9
2023-05-02T06:52:02.000Z,39.4
2023-05-02T06:55:34.000Z,35.4
2023-05-02T06:59:07.000Z,35.4
2023-05-02T07:02:40.000Z,36.7
2023-05-02T07:06:12.000Z,34.7
2023-05-02T07:09:45.000Z,30.5
2023-05-02T07:13:18.000Z,36.5
2023-05-02T07:16:09.000Z,37
2023-05-02T07:19:42.000Z,40.2
2023-05-02T07:23:14.000Z,33.8
2023-05-02T07:26:47.000Z,34.3
2023-05-02T07:30:20.000Z,29.3
2023-05-02T07:33:52.000Z,31.5
2023-05-02T07:37:25.000Z,29.6
2023-05-02T07:40:59.000Z,30
2023-05-02T07:44:32.000Z,30.9
2023-05-02T07:48:05.000Z,31.8
2023-05-02T07:51:38.000Z,31.4
2023-05-02T07:54:29.000Z,29.1
2023-05-02T07:58:01.000Z,28.2
2023-05-02T08:01:34.000Z,28.5
2023-05-02T08:05:07.000Z,26
2023-05-02T08:08:40.000Z,25.6
2023-05-02T08:12:13.000Z,25.5
2023-05-02T08:15:45.000Z,24.5
2023-05-02T08:19:18.000Z,28.4
2023-05-02T08:22:51.000Z,27.1
2023-05-02T08:26:25.000Z,26.5
2023-05-02T08:29:58.000Z,26.3
2023-05-02T08:32:49.000Z,24.7
2023-05-02T08:36:22.000Z,28.5
2023-05-02T08:39:55.000Z,26.1
2023-05-02T08:43:28.000Z,27
2023-05-02T08:47:01.000Z,25.4
2023-05-02T08:50:33.000Z,24.9
2023-05-02T08:54:06.000Z,25.7
2023-05-02T08:57:39.000Z,20.3
2023-05-02T09:01:11.000Z,20.4
2023-05-02T09:04:44.000Z,21.9
2023-05-02T09:08:17.000Z,16.6
2023-05-02T09:11:08.000Z,14.4
2023-05-02T09:14:41.000Z,13.5
2023-05-02T09:18:13.000Z,13.8
2023-05-02T09:21:46.000Z,12
2023-05-02T09:25:19.000Z,8
2023-05-02T09:28:51.000Z,6.9
2023-05-02T09:32:24.000Z,8.4
2023-05-02T09:35:57.000Z,8.7
2023-05-02T09:39:29.000Z,10.8
2023-05-02T09:43:02.000Z,8
2023-05-02T09:46:34.000Z,7.6
2023-05-02T09:49:26.000Z,6.2
2023-05-02T09:52:59.000Z,9.4
2023-05-02T09:56:32.000Z,7.6
2023-05-02T10:00:04.000Z,11.5
2023-05-02T10:03:37.000Z,7.9
2023-05-02T10:07:10.000Z,8.6
2023-05-02T10:10:42.000Z,8.1
2023-05-02T10:14:15.000Z,6
2023-05-02T10:17:48.000Z,7.5
2023-05-02T10:21:21.000Z,8.2
2023-05-02T10:24:54.000Z,6
2023-05-02T10:27:45.000Z,7.5
2023-05-02T10:31:18.000Z,8.7
2023-05-02T10:34:51.000Z,6.9
2023-05-02T10:38:24.000Z,7.2
2023-05-02T10:41:56.000Z,8.2
2023-05-02T10:45:29.000Z,8
2023-05-02T10:49:02.000Z,6.6
2023-05-02T10:52:34.000Z,6.4
2023-05-02T10:56:07.000Z,4.7
2023-05-02T10:59:40.000Z,5.9
2023-05-02T11:03:13.000Z,5.3
2023-05-02T11:06:04.000Z,8.7
2023-05-02T11:09:37.000Z,8.1
2023-05-02T11:13:09.000Z,6.2
2023-05-02T11:16:42.000Z,4
2023-05-02T11:20:15.000Z,3.2
2023-05-02T11:23:47.000Z,2.1
2023-05-02T11:27:20.000Z,1.2
2023-05-02T11:30:53.000Z,1.2
2023-05-02T11:34:26.000Z,1.1
2023-05-02T11:37:58.000Z,1.4
2023-05-02T11:41:31.000Z,0.9
2023-05-02T11:44:22.000Z,1.3
2023-05-02T11:47:55.000Z,1.1
2023-05-02T11:51:27.000Z,1.1
2023-05-02T11:55:00.000Z,1.3
2023-05-02T11:58:34.000Z,1.1
2023-05-02T12:02:07.000Z,0.8
2023-05-02T12:05:40.000Z,1.3
2023-05-02T12:09:13.000Z,1.7
2023-05-02T12:12:46.000Z,1.3
2023-05-02T12:16:18.000Z,1.6
2023-05-02T12:19:51.000Z,1.2
2023-05-02T12:22:42.000Z,1.5
2023-05-02T12:26:15.000Z,1.2
2023-05-02T12:29:47.000Z,1.4
2023-05-02T12:33:20.000Z,1.4
2023-05-02T12:36:53.000Z,1.9
2023-05-02T12:40:25.000Z,0.9
2023-05-02T12:43:58.000Z,2.2
2023-05-02T12:47:30.000Z,0.8
2023-05-02T12:51:03.000Z,1.3
2023-05-02T12:54:36.000Z,1.3
2023-05-02T12:58:09.000Z,2.5
2023-05-02T13:01:01.000Z,1.2
2023-05-02T13:04:33.000Z,1.4
2023-05-02T13:08:06.000Z,1.2
2023-05-02T13:11:39.000Z,1.6
2023-05-02T13:15:11.000Z,2
2023-05-02T13:18:44.000Z,1.1
2023-05-02T13:22:17.000Z,1.3
2023-05-02T13:25:50.000Z,2
2023-05-02T13:29:23.000Z,1.4
2023-05-02T13:32:55.000Z,1.5
2023-05-02T13:36:28.000Z,2
2023-05-02T13:39:19.000Z,2.1
2023-05-02T13:42:52.000Z,1.9
2023-05-02T13:46:24.000Z,2.1
2023-05-02T13:49:57.000Z,1.8
2023-05-02T13:53:30.000Z,3.6
2023-05-02T13:57:02.000Z,2.2
2023-05-02T14:00:35.000Z,2.3
2023-05-02T14:04:08.000Z,2.8
2023-05-02T14:07:41.000Z,3.3
2023-05-02T14:11:13.000Z,4.6
2023-05-02T14:14:46.000Z,2.3
2023-05-02T14:17:37.000Z,2.9
2023-05-02T14:21:10.000Z,3.5
2023-05-02T14:24:42.000Z,5.2
2023-05-02T14:28:15.000Z,4.7
2023-05-02T14:31:48.000Z,4.4
2023-05-02T14:35:21.000Z,6.6
2023-05-02T14:38:53.000Z,3.7
2023-05-02T14:42:26.000Z,4.2
2023-05-02T14:45:59.000Z,4.6
2023-05-02T14:49:31.000Z,3.5
2023-05-02T14:53:04.000Z,5.8
2023-05-02T14:55:55.000Z,4.8
2023-05-02T14:59:28.000Z,5.9
2023-05-02T15:03:00.000Z,5.3
2023-05-02T15:06:33.000Z,5.4
2023-05-02T15:10:06.000Z,6.4
2023-05-02T15:13:39.000Z,5.4
2023-05-02T15:17:11.000Z,6.3
2023-05-02T15:20:44.000Z,6.2
2023-05-02T15:24:17.000Z,5.1
2023-05-02T15:27:49.000Z,5.4
2023-05-02T15:31:22.000Z,5.8
2023-05-02T15:34:13.000Z,5.4
2023-05-02T15:37:46.000Z,4.9
2023-05-02T15:41:19.000Z,6.8
2023-05-02T15:44:51.000Z,6.8
2023-05-02T15:48:24.000Z,6.5
2023-05-02T15:51:57.000Z,6.3
2023-05-02T15:55:29.000Z,7.8
2023-05-02T15:59:02.000Z,7.9
2023-05-02T16:02:35.000Z,9
2023-05-02T16:06:07.000Z,7.6
2023-05-02T16:09:40.000Z,8.6
2023-05-02T16:12:32.000Z,7.8
2023-05-02T16:16:04.000Z,8.7
2023-05-02T16:19:37.000Z,9.6
2023-05-02T16:23:10.000Z,8.5
2023-05-02T16:26:42.000Z,8.6
2023-05-02T16:30:15.000Z,10.1
2023-05-02T16:33:48.000Z,6.2
2023-05-02T16:37:21.000Z,6.7
2023-05-02T16:40:53.000Z,7
2023-05-02T16:44:26.000Z,8.6
2023-05-02T16:47:58.000Z,8
2023-05-02T16:50:49.000Z,7
2023-05-02T16:54:22.000Z,6.3
2023-05-02T16:57:55.000Z,6.4
2023-05-02T17:01:27.000Z,9.1
2023-05-02T17:05:03.000Z,8.4
2023-05-02T17:08:36.000Z,6.4
2023-05-02T17:12:09.000Z,8.2
2023-05-02T17:15:41.000Z,7.2
2023-05-02T17:19:14.000Z,6
2023-05-02T17:22:47.000Z,8.7
2023-05-02T17:26:19.000Z,9.1
2023-05-02T17:29:10.000Z,7.7
2023-05-02T17:32:43.000Z,9.1
2023-05-02T17:36:16.000Z,8.3
2023-05-02T17:39:49.000Z,8.6
2023-05-02T17:43:21.000Z,14.7
2023-05-02T17:46:54.000Z,11.7
2023-05-02T17:50:27.000Z,12.4
2023-05-02T17:53:59.000Z,8.5
2023-05-02T17:57:32.000Z,7.8
2023-05-02T18:01:05.000Z,8.3
2023-05-02T18:04:37.000Z,9.6
2023-05-02T18:07:29.000Z,7.9
2023-05-02T18:11:02.000Z,8
2023-05-02T18:14:34.000Z,7.8
2023-05-02T18:18:07.000Z,11.6
2023-05-02T18:21:39.000Z,8.7
2023-05-02T18:25:12.000Z,9.8
2023-05-02T18:28:45.000Z,9.8
2023-05-02T18:32:17.000Z,10.4
2023-05-02T18:35:50.000Z,10.6
2023-05-02T18:39:23.000Z,10.4
2023-05-02T18:42:56.000Z,9
2023-05-02T18:45:47.000Z,10
2023-05-02T18:49:20.000Z,12.1
2023-05-02T18:52:52.000Z,9.2
2023-05-02T18:56:25.000Z,9.3
2023-05-02T18:59:58.000Z,9.3
2023-05-02T19:07:36.000Z,10.8
2023-05-02T19:11:08.000Z,12.7
2023-05-02T19:14:42.000Z,8.5
2023-05-02T19:18:15.000Z,12.2
2023-05-02T19:21:48.000Z,8.8
2023-05-02T19:24:39.000Z,9.5
2023-05-02T19:28:12.000Z,9.3
2023-05-02T19:31:44.000Z,14.3
2023-05-02T19:35:17.000Z,11.1
2023-05-02T19:38:50.000Z,7.8
2023-05-02T19:42:22.000Z,11.4
2023-05-02T19:45:55.000Z,13.2
2023-05-02T19:49:28.000Z,12.2
2023-05-02T19:53:00.000Z,10.6
2023-05-02T19:56:33.000Z,11.2
2023-05-02T20:00:06.000Z,11.6
2023-05-02T20:02:57.000Z,9.2
2023-05-02T20:06:30.000Z,11.7
2023-05-02T20:10:02.000Z,8.7
2023-05-02T20:13:35.000Z,11.6
2023-05-02T20:17:08.000Z,10.2
2023-05-02T20:20:40.000Z,11.6
2023-05-02T20:24:13.000Z,13
2023-05-02T20:27:46.000Z,11.2
2023-05-02T20:31:18.000Z,15.9
2023-05-02T20:34:51.000Z,27.4
2023-05-02T20:38:24.000Z,20.5
2023-05-02T20:41:15.000Z,14.5
2023-05-02T20:44:48.000Z,15
2023-05-02T20:48:21.000Z,16.7
2023-05-02T20:51:53.000Z,16.5
2023-05-02T20:55:26.000Z,21.8
2023-05-02T20:58:59.000Z,13.4
2023-05-02T21:02:31.000Z,14.4
2023-05-02T21:06:04.000Z,15.3
2023-05-02T21:09:37.000Z,12
2023-05-02T21:13:12.000Z,10.1
2023-05-02T21:16:44.000Z,13.3
2023-05-02T21:19:35.000Z,10.7
2023-05-02T21:23:08.000Z,14.5
2023-05-02T21:26:41.000Z,13.8
2023-05-02T21:30:13.000Z,13
2023-05-02T21:33:46.000Z,14.8
2023-05-02T21:37:18.000Z,12.7
2023-05-02T21:40:51.000Z,13.6
2023-05-02T21:44:24.000Z,18.2
2023-05-02T21:47:56.000Z,17.8
2023-05-02T21:51:29.000Z,20.4
2023-05-02T21:55:01.000Z,16.3
2023-05-02T21:57:53.000Z,17
2023-05-02T22:01:25.000Z,18.8
2023-05-02T22:04:58.000Z,13.8
2023-05-02T22:08:31.000Z,16.5
2023-05-02T22:12:04.000Z,14.9
2023-05-02T22:15:36.000Z,13.4
2023-05-02T22:19:09.000Z,10.6
2023-05-02T22:22:42.000Z,13
2023-05-02T22:26:14.000Z,11.4
2023-05-02T22:29:47.000Z,9.7
2023-05-02T22:33:20.000Z,9.6
2023-05-02T22:36:11.000Z,12.4
2023-05-02T22:39:43.000Z,15.2
2023-05-02T22:43:16.000Z,11.9
2023-05-02T22:46:53.000Z,9.8
2023-05-02T22:50:26.000Z,10.8
2023-05-02T22:53:58.000Z,12.3
2023-05-02T22:57:31.000Z,11.2
2023-05-02T23:01:03.000Z,9.6
2023-05-02T23:04:36.000Z,12.2
2023-05-02T23:08:09.000Z,11.8
2023-05-02T23:11:42.000Z,10.4
2023-05-02T23:14:33.000Z,10.5
2023-05-02T23:18:06.000Z,9.8
2023-05-02T23:21:38.000Z,10
2023-05-02T23:25:11.000Z,12.4
2023-05-02T23:28:44.000Z,13.6
2023-05-02T23:32:16.000Z,10
2023-05-02T23:35:49.000Z,10.6
2023-05-02T23:39:22.000Z,10.3
2023-05-02T23:42:54.000Z,14
2023-05-02T23:46:27.000Z,14.5
2023-05-02T23:50:00.000Z,12.6
2023-05-02T23:52:51.000Z,9.1
2023-05-02T23:56:24.000Z,11.2
2023-05-02T23:59:57.000Z,12.3
